9HSIS LIMJ-LECH
Flight info
| Callsign | 9HSIS |
|---|---|
| Flight time | 1h 28m |
| Altitude | 41000 |
| Route | LAGEN DCT GEKBA DCT VAMTU UM984 DIVKO UN975 NILDU DCT NENDA DCT BCN DCT RODRA DCT PEXOT M985 TORDU |
| Aircraft | CL60/M-SBDE1E2E3FGHIJ1J3J4J5RWXYZ/LB1D1 |
Departure
| Time | 2026-04-23 14:25 |
|---|---|
| Airport | Genoa Cristoforo Colombo Airport (LIMJ) |
Arrival
| Time | 2026-04-23 15:53 |
|---|---|
| Airport | Castellón-Costa Azahar Airport (LECH) |
| Time | Latitude | Longitude | Altitude | Speed | Heading |
|---|---|---|---|---|---|
| 2026-04-23 14:06 | 44.41708 | 8.85155 | 26 ft | 0 kts | 108° |
| 2026-04-23 14:20 | 44.41709 | 8.85162 | 25 ft | 2 kts | 58° |
| 2026-04-23 14:20 | 44.41726 | 8.85144 | 24 ft | 6 kts | 270° |
| 2026-04-23 14:20 | 44.41710 | 8.85080 | 24 ft | 5 kts | 236° |
| 2026-04-23 14:20 | 44.41687 | 8.85046 | 24 ft | 6 kts | 224° |
| 2026-04-23 14:21 | 44.41649 | 8.84992 | 24 ft | 8 kts | 229° |
| 2026-04-23 14:21 | 44.41591 | 8.84901 | 23 ft | 16 kts | 230° |
| 2026-04-23 14:21 | 44.41517 | 8.84769 | 23 ft | 18 kts | 232° |
| 2026-04-23 14:21 | 44.41457 | 8.84660 | 23 ft | 8 kts | 231° |
| 2026-04-23 14:22 | 44.41402 | 8.84692 | 23 ft | 12 kts | 105° |
| 2026-04-23 14:22 | 44.41379 | 8.84817 | 24 ft | 14 kts | 105° |
| 2026-04-23 14:22 | 44.41349 | 8.84972 | 24 ft | 18 kts | 102° |
| 2026-04-23 14:22 | 44.41320 | 8.85137 | 25 ft | 15 kts | 104° |
| 2026-04-23 14:23 | 44.41282 | 8.85258 | 25 ft | 14 kts | 141° |
| 2026-04-23 14:23 | 44.41190 | 8.85265 | 25 ft | 14 kts | 196° |
| 2026-04-23 14:23 | 44.41120 | 8.85238 | 24 ft | 7 kts | 196° |
| 2026-04-23 14:23 | 44.41071 | 8.85217 | 24 ft | 8 kts | 200° |
| 2026-04-23 14:24 | 44.41009 | 8.85167 | 24 ft | 10 kts | 230° |
| 2026-04-23 14:24 | 44.41021 | 8.85080 | 24 ft | 8 kts | 284° |
| 2026-04-23 14:24 | 44.41069 | 8.84834 | 23 ft | 72 kts | 285° |
| 2026-04-23 14:24 | 44.41305 | 8.83670 | 139 ft | 162 kts | 285° |
| 2026-04-23 14:25 | 44.41649 | 8.82087 | 1011 ft | 184 kts | 287° |
| 2026-04-23 14:25 | 44.41709 | 8.80267 | 1976 ft | 204 kts | 254° |
| 2026-04-23 14:25 | 44.41229 | 8.79175 | 2613 ft | 197 kts | 227° |
| 2026-04-23 14:25 | 44.39489 | 8.78134 | 3347 ft | 219 kts | 182° |
| 2026-04-23 14:26 | 44.38026 | 8.78558 | 3999 ft | 218 kts | 158° |
| 2026-04-23 14:26 | 44.36668 | 8.79393 | 4795 ft | 217 kts | 154° |
| 2026-04-23 14:26 | 44.35274 | 8.80293 | 5595 ft | 222 kts | 155° |
| 2026-04-23 14:26 | 44.33867 | 8.81109 | 6432 ft | 232 kts | 163° |
| 2026-04-23 14:27 | 44.32103 | 8.81311 | 7114 ft | 275 kts | 189° |
| 2026-04-23 14:27 | 44.30348 | 8.80220 | 8297 ft | 292 kts | 218° |
| 2026-04-23 14:27 | 44.28983 | 8.78041 | 9229 ft | 307 kts | 245° |
| 2026-04-23 14:27 | 44.28449 | 8.75240 | 10090 ft | 304 kts | 274° |
| 2026-04-23 14:28 | 44.28912 | 8.72439 | 10957 ft | 298 kts | 302° |
| 2026-04-23 14:28 | 44.29582 | 8.70858 | 11409 ft | 309 kts | 308° |
| 2026-04-23 14:28 | 44.31320 | 8.67248 | 12439 ft | 345 kts | 308° |
| 2026-04-23 14:28 | 44.32647 | 8.64466 | 13394 ft | 355 kts | 309° |
| 2026-04-23 14:29 | 44.34125 | 8.61679 | 14336 ft | 355 kts | 309° |
| 2026-04-23 14:29 | 44.35529 | 8.58838 | 14489 ft | 357 kts | 308° |
| 2026-04-23 14:29 | 44.36415 | 8.56939 | 14450 ft | 355 kts | 308° |
| 2026-04-23 14:29 | 44.38193 | 8.53050 | 14361 ft | 354 kts | 300° |
| 2026-04-23 14:30 | 44.38915 | 8.49799 | 14295 ft | 357 kts | 281° |
| 2026-04-23 14:30 | 44.38821 | 8.46316 | 14445 ft | 357 kts | 260° |
| 2026-04-23 14:30 | 44.38269 | 8.43029 | 15255 ft | 354 kts | 259° |
| 2026-04-23 14:30 | 44.37705 | 8.39599 | 16108 ft | 369 kts | 259° |
| 2026-04-23 14:31 | 44.37127 | 8.36093 | 17187 ft | 376 kts | 259° |
| 2026-04-23 14:31 | 44.36550 | 8.32617 | 18246 ft | 381 kts | 258° |
| 2026-04-23 14:31 | 44.35946 | 8.29000 | 19257 ft | 387 kts | 258° |
| 2026-04-23 14:31 | 44.35327 | 8.25315 | 20241 ft | 392 kts | 258° |
| 2026-04-23 14:32 | 44.34706 | 8.21623 | 21146 ft | 398 kts | 258° |
| 2026-04-23 14:32 | 44.34066 | 8.17853 | 22059 ft | 402 kts | 258° |
| 2026-04-23 14:32 | 44.33639 | 8.15347 | 22636 ft | 405 kts | 258° |
| 2026-04-23 14:32 | 44.32755 | 8.10177 | 23802 ft | 411 kts | 258° |
| 2026-04-23 14:33 | 44.32090 | 8.06298 | 24618 ft | 416 kts | 257° |
| 2026-04-23 14:33 | 44.31412 | 8.02365 | 25357 ft | 422 kts | 257° |
| 2026-04-23 14:33 | 44.30725 | 7.98388 | 26044 ft | 428 kts | 257° |
| 2026-04-23 14:33 | 44.30018 | 7.94303 | 26729 ft | 433 kts | 257° |
| 2026-04-23 14:34 | 44.29309 | 7.90227 | 27348 ft | 439 kts | 257° |
| 2026-04-23 14:34 | 44.28579 | 7.86038 | 27977 ft | 443 kts | 257° |
| 2026-04-23 14:34 | 44.27806 | 7.81914 | 28584 ft | 446 kts | 252° |
| 2026-04-23 14:34 | 44.26454 | 7.77937 | 29188 ft | 447 kts | 236° |
| 2026-04-23 14:35 | 44.24399 | 7.74603 | 29744 ft | 447 kts | 222° |
| 2026-04-23 14:35 | 44.22068 | 7.71701 | 30243 ft | 451 kts | 220° |
| 2026-04-23 14:35 | 44.19719 | 7.68791 | 30765 ft | 454 kts | 220° |
| 2026-04-23 14:35 | 44.17357 | 7.65867 | 31378 ft | 453 kts | 221° |
| 2026-04-23 14:36 | 44.15083 | 7.62823 | 31993 ft | 454 kts | 229° |
| 2026-04-23 14:36 | 44.13252 | 7.59262 | 32590 ft | 453 kts | 240° |
| 2026-04-23 14:36 | 44.12274 | 7.56698 | 32962 ft | 452 kts | 245° |
| 2026-04-23 14:36 | 44.10439 | 7.51506 | 33753 ft | 449 kts | 245° |
| 2026-04-23 14:37 | 44.09075 | 7.47685 | 34304 ft | 447 kts | 245° |
| 2026-04-23 14:37 | 44.07701 | 7.43853 | 34791 ft | 445 kts | 245° |
| 2026-04-23 14:37 | 44.06753 | 7.41218 | 35090 ft | 444 kts | 246° |
| 2026-04-23 14:37 | 44.04935 | 7.36188 | 35762 ft | 439 kts | 247° |
| 2026-04-23 14:38 | 44.03583 | 7.32460 | 36214 ft | 436 kts | 246° |
| 2026-04-23 14:38 | 44.02784 | 7.30260 | 36571 ft | 433 kts | 246° |
| 2026-04-23 14:38 | 44.00897 | 7.25086 | 37317 ft | 431 kts | 246° |
| 2026-04-23 14:38 | 43.99992 | 7.22608 | 37647 ft | 429 kts | 246° |
| 2026-04-23 14:39 | 43.98640 | 7.18919 | 38058 ft | 429 kts | 246° |
| 2026-04-23 14:39 | 43.96846 | 7.14036 | 38549 ft | 427 kts | 247° |
| 2026-04-23 14:39 | 43.95467 | 7.10291 | 38937 ft | 426 kts | 247° |
| 2026-04-23 14:39 | 43.94123 | 7.06648 | 39244 ft | 426 kts | 247° |
| 2026-04-23 14:40 | 43.92786 | 7.03034 | 39572 ft | 425 kts | 247° |
| 2026-04-23 14:40 | 43.91904 | 7.00650 | 39760 ft | 424 kts | 247° |
| 2026-04-23 14:40 | 43.90096 | 6.95775 | 40105 ft | 424 kts | 247° |
| 2026-04-23 14:40 | 43.89228 | 6.93438 | 40247 ft | 424 kts | 247° |
| 2026-04-23 14:41 | 43.87408 | 6.88547 | 40521 ft | 424 kts | 247° |
| 2026-04-23 14:41 | 43.86511 | 6.86141 | 40644 ft | 425 kts | 247° |
| 2026-04-23 14:41 | 43.85143 | 6.82473 | 40833 ft | 425 kts | 247° |
| 2026-04-23 14:41 | 43.83824 | 6.78945 | 41024 ft | 425 kts | 247° |
| 2026-04-23 14:42 | 43.81976 | 6.74008 | 41219 ft | 426 kts | 247° |
| 2026-04-23 14:42 | 43.81070 | 6.71590 | 41201 ft | 430 kts | 247° |
| 2026-04-23 14:42 | 43.77841 | 6.62988 | 41207 ft | 439 kts | 247° |
| 2026-04-23 14:43 | 43.74999 | 6.55443 | 41204 ft | 447 kts | 247° |
| 2026-04-23 14:43 | 43.72138 | 6.47866 | 41202 ft | 453 kts | 248° |
| 2026-04-23 14:44 | 43.69187 | 6.40073 | 41202 ft | 457 kts | 248° |
| 2026-04-23 14:44 | 43.66715 | 6.33544 | 41202 ft | 459 kts | 247° |
| 2026-04-23 14:45 | 43.63774 | 6.25805 | 41202 ft | 460 kts | 247° |
| 2026-04-23 14:45 | 43.60296 | 6.16682 | 41200 ft | 459 kts | 247° |
| 2026-04-23 14:46 | 43.57333 | 6.08932 | 41201 ft | 459 kts | 247° |
| 2026-04-23 14:46 | 43.54348 | 6.01185 | 41198 ft | 459 kts | 247° |
| 2026-04-23 14:47 | 43.51359 | 5.93447 | 41198 ft | 458 kts | 247° |
| 2026-04-23 14:47 | 43.48368 | 5.85721 | 41200 ft | 457 kts | 247° |
| 2026-04-23 14:48 | 43.45399 | 5.78069 | 41201 ft | 456 kts | 248° |
| 2026-04-23 14:48 | 43.42408 | 5.70379 | 41202 ft | 455 kts | 248° |
| 2026-04-23 14:49 | 43.39425 | 5.62728 | 41198 ft | 454 kts | 248° |
| 2026-04-23 14:49 | 43.36470 | 5.55166 | 41207 ft | 454 kts | 248° |
| 2026-04-23 14:50 | 43.33465 | 5.47499 | 41194 ft | 454 kts | 248° |
| 2026-04-23 14:50 | 43.30476 | 5.39891 | 41195 ft | 454 kts | 248° |
| 2026-04-23 14:51 | 43.27968 | 5.33521 | 41200 ft | 453 kts | 247° |
| 2026-04-23 14:51 | 43.24476 | 5.24678 | 41204 ft | 452 kts | 248° |
| 2026-04-23 14:52 | 43.21485 | 5.17124 | 41194 ft | 452 kts | 247° |
| 2026-04-23 14:52 | 43.18499 | 5.09602 | 41209 ft | 452 kts | 248° |
| 2026-04-23 14:53 | 43.15486 | 5.02034 | 41213 ft | 450 kts | 248° |
| 2026-04-23 14:53 | 43.12507 | 4.94570 | 41218 ft | 449 kts | 248° |
| 2026-04-23 14:54 | 43.09518 | 4.87101 | 41217 ft | 448 kts | 248° |
| 2026-04-23 14:54 | 43.06408 | 4.79755 | 41220 ft | 452 kts | 241° |
| 2026-04-23 14:55 | 43.02115 | 4.73389 | 41203 ft | 462 kts | 229° |
| 2026-04-23 14:55 | 42.97340 | 4.67565 | 41211 ft | 462 kts | 228° |
| 2026-04-23 14:56 | 42.92529 | 4.61740 | 41220 ft | 463 kts | 228° |
| 2026-04-23 14:56 | 42.87710 | 4.55921 | 41200 ft | 464 kts | 228° |
| 2026-04-23 14:57 | 42.82875 | 4.50092 | 41225 ft | 463 kts | 228° |
| 2026-04-23 14:57 | 42.78082 | 4.44312 | 41209 ft | 462 kts | 228° |
| 2026-04-23 14:58 | 42.73269 | 4.38537 | 41224 ft | 462 kts | 228° |
| 2026-04-23 14:58 | 42.69272 | 4.33770 | 41209 ft | 462 kts | 227° |
| 2026-04-23 14:59 | 42.63633 | 4.27057 | 41208 ft | 461 kts | 227° |
| 2026-04-23 14:59 | 42.58841 | 4.21364 | 41210 ft | 460 kts | 227° |
| 2026-04-23 15:00 | 42.54016 | 4.15643 | 41204 ft | 460 kts | 227° |
| 2026-04-23 15:00 | 42.49232 | 4.09982 | 41214 ft | 459 kts | 227° |
| 2026-04-23 15:01 | 42.44429 | 4.04310 | 41192 ft | 459 kts | 227° |
| 2026-04-23 15:01 | 42.39611 | 3.98632 | 41193 ft | 458 kts | 227° |
| 2026-04-23 15:02 | 42.34815 | 3.92991 | 41196 ft | 458 kts | 227° |
| 2026-04-23 15:02 | 42.30026 | 3.87365 | 41194 ft | 457 kts | 227° |
| 2026-04-23 15:03 | 42.25466 | 3.81500 | 41192 ft | 451 kts | 236° |
| 2026-04-23 15:03 | 42.21806 | 3.74778 | 41202 ft | 445 kts | 240° |
| 2026-04-23 15:04 | 42.18240 | 3.67962 | 41199 ft | 445 kts | 240° |
| 2026-04-23 15:04 | 42.15253 | 3.62279 | 41202 ft | 445 kts | 240° |
| 2026-04-23 15:05 | 42.11707 | 3.55551 | 41196 ft | 444 kts | 240° |
| 2026-04-23 15:05 | 42.07532 | 3.47660 | 41202 ft | 444 kts | 240° |
| 2026-04-23 15:06 | 42.03950 | 3.40911 | 41197 ft | 443 kts | 240° |
| 2026-04-23 15:06 | 42.00978 | 3.35327 | 41197 ft | 443 kts | 240° |
| 2026-04-23 15:07 | 41.96800 | 3.27498 | 41194 ft | 442 kts | 240° |
| 2026-04-23 15:07 | 41.93223 | 3.20812 | 41184 ft | 442 kts | 239° |
| 2026-04-23 15:08 | 41.89622 | 3.14098 | 41176 ft | 442 kts | 240° |
| 2026-04-23 15:09 | 41.84238 | 3.04091 | 41187 ft | 442 kts | 240° |
| 2026-04-23 15:09 | 41.80675 | 2.97488 | 41197 ft | 442 kts | 240° |
| 2026-04-23 15:10 | 41.77655 | 2.91901 | 41186 ft | 442 kts | 240° |
| 2026-04-23 15:10 | 41.73465 | 2.84168 | 41183 ft | 441 kts | 240° |
| 2026-04-23 15:11 | 41.69862 | 2.77537 | 41177 ft | 440 kts | 240° |
| 2026-04-23 15:11 | 41.66166 | 2.71003 | 41168 ft | 440 kts | 238° |
| 2026-04-23 15:12 | 41.63043 | 2.65638 | 41177 ft | 440 kts | 238° |
| 2026-04-23 15:12 | 41.58658 | 2.58116 | 41163 ft | 441 kts | 238° |
| 2026-04-23 15:13 | 41.54871 | 2.51634 | 41157 ft | 441 kts | 238° |
| 2026-04-23 15:13 | 41.51119 | 2.45227 | 41167 ft | 440 kts | 238° |
| 2026-04-23 15:14 | 41.47327 | 2.38764 | 41156 ft | 440 kts | 238° |
| 2026-04-23 15:14 | 41.44829 | 2.34514 | 41163 ft | 440 kts | 237° |
| 2026-04-23 15:15 | 41.39978 | 2.26314 | 41167 ft | 440 kts | 237° |
| 2026-04-23 15:15 | 41.36218 | 2.19934 | 41162 ft | 439 kts | 237° |
| 2026-04-23 15:16 | 41.32433 | 2.13530 | 41165 ft | 439 kts | 237° |
| 2026-04-23 15:16 | 41.28517 | 2.07322 | 41163 ft | 441 kts | 233° |
| 2026-04-23 15:17 | 41.24420 | 2.01265 | 41153 ft | 442 kts | 233° |
| 2026-04-23 15:17 | 41.20314 | 1.95197 | 40875 ft | 440 kts | 233° |
| 2026-04-23 15:17 | 41.18306 | 1.92238 | 40680 ft | 435 kts | 233° |
| 2026-04-23 15:18 | 41.16282 | 1.89256 | 40480 ft | 433 kts | 233° |
| 2026-04-23 15:18 | 41.14282 | 1.86312 | 40276 ft | 431 kts | 233° |
| 2026-04-23 15:18 | 41.12267 | 1.83347 | 40070 ft | 430 kts | 233° |
| 2026-04-23 15:18 | 41.10290 | 1.80441 | 39877 ft | 430 kts | 233° |
| 2026-04-23 15:19 | 41.08273 | 1.77477 | 39684 ft | 430 kts | 233° |
| 2026-04-23 15:19 | 41.06282 | 1.74555 | 39488 ft | 430 kts | 233° |
| 2026-04-23 15:19 | 41.04282 | 1.71622 | 39290 ft | 430 kts | 233° |
| 2026-04-23 15:19 | 41.02289 | 1.68701 | 39093 ft | 429 kts | 233° |
| 2026-04-23 15:20 | 41.00942 | 1.66729 | 38961 ft | 429 kts | 233° |
| 2026-04-23 15:20 | 40.98272 | 1.62820 | 38612 ft | 431 kts | 233° |
| 2026-04-23 15:20 | 40.96257 | 1.59874 | 38051 ft | 431 kts | 233° |
| 2026-04-23 15:20 | 40.94252 | 1.56946 | 37495 ft | 431 kts | 233° |
| 2026-04-23 15:21 | 40.92265 | 1.54046 | 36957 ft | 431 kts | 233° |
| 2026-04-23 15:21 | 40.90240 | 1.51093 | 36410 ft | 431 kts | 233° |
| 2026-04-23 15:21 | 40.88246 | 1.48189 | 35862 ft | 432 kts | 233° |
| 2026-04-23 15:21 | 40.86209 | 1.45223 | 35273 ft | 434 kts | 233° |
| 2026-04-23 15:22 | 40.84174 | 1.42266 | 34704 ft | 436 kts | 233° |
| 2026-04-23 15:22 | 40.82152 | 1.39330 | 34151 ft | 437 kts | 233° |
| 2026-04-23 15:22 | 40.80117 | 1.36376 | 33538 ft | 440 kts | 233° |
| 2026-04-23 15:22 | 40.78068 | 1.33407 | 32985 ft | 441 kts | 232° |
| 2026-04-23 15:23 | 40.75993 | 1.30403 | 32381 ft | 443 kts | 232° |
| 2026-04-23 15:23 | 40.73904 | 1.27383 | 31788 ft | 442 kts | 232° |
| 2026-04-23 15:23 | 40.71860 | 1.24432 | 31206 ft | 439 kts | 232° |
| 2026-04-23 15:23 | 40.69825 | 1.21495 | 30630 ft | 437 kts | 232° |
| 2026-04-23 15:24 | 40.67778 | 1.18540 | 30056 ft | 434 kts | 232° |
| 2026-04-23 15:24 | 40.65752 | 1.15618 | 29475 ft | 431 kts | 232° |
| 2026-04-23 15:24 | 40.63749 | 1.12733 | 28904 ft | 428 kts | 232° |
| 2026-04-23 15:24 | 40.61755 | 1.09864 | 28336 ft | 424 kts | 232° |
| 2026-04-23 15:25 | 40.59768 | 1.07007 | 27781 ft | 420 kts | 232° |
| 2026-04-23 15:25 | 40.57816 | 1.04202 | 27224 ft | 417 kts | 232° |
| 2026-04-23 15:25 | 40.55869 | 1.01409 | 26673 ft | 413 kts | 232° |
| 2026-04-23 15:25 | 40.53924 | 0.98622 | 26127 ft | 409 kts | 232° |
| 2026-04-23 15:26 | 40.52037 | 0.95923 | 25569 ft | 405 kts | 231° |
| 2026-04-23 15:26 | 40.50128 | 0.93194 | 25039 ft | 401 kts | 232° |
| 2026-04-23 15:26 | 40.48252 | 0.90512 | 24517 ft | 397 kts | 231° |
| 2026-04-23 15:26 | 40.46418 | 0.87896 | 23996 ft | 394 kts | 231° |
| 2026-04-23 15:27 | 40.44567 | 0.85256 | 23474 ft | 390 kts | 231° |
| 2026-04-23 15:27 | 40.42759 | 0.82681 | 22958 ft | 386 kts | 231° |
| 2026-04-23 15:27 | 40.40941 | 0.80093 | 22441 ft | 383 kts | 231° |
| 2026-04-23 15:27 | 40.39146 | 0.77538 | 21940 ft | 380 kts | 231° |
| 2026-04-23 15:28 | 40.37369 | 0.75011 | 21431 ft | 378 kts | 231° |
| 2026-04-23 15:28 | 40.35587 | 0.72478 | 20930 ft | 375 kts | 231° |
| 2026-04-23 15:28 | 40.33833 | 0.69992 | 20432 ft | 373 kts | 231° |
| 2026-04-23 15:28 | 40.32084 | 0.67516 | 19941 ft | 369 kts | 231° |
| 2026-04-23 15:29 | 40.30447 | 0.64991 | 19469 ft | 360 kts | 240° |
| 2026-04-23 15:29 | 40.29240 | 0.62170 | 18868 ft | 354 kts | 246° |
| 2026-04-23 15:29 | 40.28124 | 0.59330 | 18214 ft | 351 kts | 246° |
| 2026-04-23 15:29 | 40.27012 | 0.56488 | 17576 ft | 348 kts | 246° |
| 2026-04-23 15:30 | 40.25922 | 0.53700 | 16994 ft | 344 kts | 246° |
| 2026-04-23 15:30 | 40.24852 | 0.50975 | 16408 ft | 340 kts | 246° |
| 2026-04-23 15:30 | 40.23775 | 0.48239 | 15823 ft | 336 kts | 246° |
| 2026-04-23 15:30 | 40.22710 | 0.45543 | 15243 ft | 333 kts | 246° |
| 2026-04-23 15:31 | 40.21656 | 0.42876 | 14642 ft | 329 kts | 247° |
| 2026-04-23 15:31 | 40.20722 | 0.40181 | 14034 ft | 324 kts | 252° |
| 2026-04-23 15:31 | 40.19902 | 0.37475 | 13442 ft | 320 kts | 252° |
| 2026-04-23 15:31 | 40.19104 | 0.34806 | 12819 ft | 318 kts | 252° |
| 2026-04-23 15:32 | 40.18312 | 0.32127 | 12220 ft | 316 kts | 252° |
| 2026-04-23 15:32 | 40.17533 | 0.29456 | 11611 ft | 314 kts | 252° |
| 2026-04-23 15:32 | 40.16768 | 0.26814 | 11016 ft | 311 kts | 252° |
| 2026-04-23 15:32 | 40.16013 | 0.24189 | 10682 ft | 299 kts | 252° |
| 2026-04-23 15:33 | 40.15310 | 0.21748 | 10653 ft | 276 kts | 252° |
| 2026-04-23 15:33 | 40.14655 | 0.19490 | 10477 ft | 263 kts | 252° |
| 2026-04-23 15:33 | 40.14015 | 0.17281 | 10122 ft | 256 kts | 252° |
| 2026-04-23 15:33 | 40.13396 | 0.15118 | 9639 ft | 253 kts | 252° |
| 2026-04-23 15:34 | 40.12794 | 0.12989 | 9119 ft | 253 kts | 252° |
| 2026-04-23 15:34 | 40.12191 | 0.10820 | 8525 ft | 253 kts | 252° |
| 2026-04-23 15:34 | 40.11600 | 0.08675 | 7957 ft | 253 kts | 252° |
| 2026-04-23 15:34 | 40.11018 | 0.06537 | 7387 ft | 253 kts | 252° |
| 2026-04-23 15:35 | 40.10429 | 0.04360 | 6821 ft | 253 kts | 252° |
| 2026-04-23 15:35 | 40.09850 | 0.02196 | 6217 ft | 253 kts | 252° |
| 2026-04-23 15:35 | 40.09273 | 0.00041 | 5637 ft | 253 kts | 252° |
| 2026-04-23 15:35 | 40.08697 | -0.02107 | 5058 ft | 254 kts | 252° |
| 2026-04-23 15:36 | 40.08115 | -0.04263 | 4702 ft | 242 kts | 252° |
| 2026-04-23 15:36 | 40.07585 | -0.06219 | 4741 ft | 216 kts | 252° |
| 2026-04-23 15:36 | 40.07182 | -0.08029 | 4447 ft | 204 kts | 267° |
| 2026-04-23 15:36 | 40.07539 | -0.09740 | 4020 ft | 196 kts | 307° |
| 2026-04-23 15:37 | 40.08477 | -0.10907 | 3793 ft | 179 kts | 333° |
| 2026-04-23 15:37 | 40.09618 | -0.11490 | 3548 ft | 180 kts | 356° |
| 2026-04-23 15:37 | 40.10452 | -0.11502 | 3410 ft | 180 kts | 12° |
| 2026-04-23 15:37 | 40.11906 | -0.10648 | 3220 ft | 170 kts | 43° |
| 2026-04-23 15:38 | 40.12751 | -0.09607 | 3091 ft | 167 kts | 50° |
| 2026-04-23 15:38 | 40.13520 | -0.08459 | 2901 ft | 165 kts | 52° |
| 2026-04-23 15:38 | 40.14199 | -0.07277 | 2810 ft | 161 kts | 57° |
| 2026-04-23 15:38 | 40.14803 | -0.06031 | 2746 ft | 164 kts | 60° |
| 2026-04-23 15:39 | 40.15397 | -0.04773 | 2595 ft | 163 kts | 62° |
| 2026-04-23 15:39 | 40.15982 | -0.03544 | 2447 ft | 156 kts | 59° |
| 2026-04-23 15:39 | 40.16514 | -0.02471 | 2352 ft | 130 kts | 56° |
| 2026-04-23 15:39 | 40.16977 | -0.01499 | 2223 ft | 122 kts | 56° |
| 2026-04-23 15:40 | 40.17440 | -0.00572 | 2072 ft | 119 kts | 60° |
| 2026-04-23 15:40 | 40.17887 | 0.00330 | 1937 ft | 117 kts | 56° |
| 2026-04-23 15:40 | 40.18338 | 0.01230 | 1803 ft | 118 kts | 54° |
| 2026-04-23 15:40 | 40.18795 | 0.02124 | 1689 ft | 118 kts | 55° |
| 2026-04-23 15:41 | 40.19247 | 0.03016 | 1566 ft | 117 kts | 59° |
| 2026-04-23 15:41 | 40.19702 | 0.03891 | 1432 ft | 118 kts | 55° |
| 2026-04-23 15:41 | 40.20143 | 0.04795 | 1285 ft | 117 kts | 55° |
| 2026-04-23 15:41 | 40.20602 | 0.05702 | 1166 ft | 117 kts | 56° |
| 2026-04-23 15:42 | 40.21027 | 0.06578 | 1108 ft | 103 kts | 57° |
| 2026-04-23 15:42 | 40.21427 | 0.07369 | 1306 ft | 129 kts | 61° |
| 2026-04-23 15:42 | 40.21948 | 0.08389 | 2278 ft | 143 kts | 58° |
| 2026-04-23 15:42 | 40.22459 | 0.09455 | 3318 ft | 151 kts | 61° |
| 2026-04-23 15:43 | 40.23048 | 0.10804 | 4052 ft | 193 kts | 63° |
| 2026-04-23 15:43 | 40.23745 | 0.12381 | 4737 ft | 213 kts | 60° |
| 2026-04-23 15:43 | 40.24506 | 0.14029 | 4949 ft | 211 kts | 60° |
| 2026-04-23 15:43 | 40.24932 | 0.15838 | 4968 ft | 210 kts | 93° |
| 2026-04-23 15:44 | 40.24394 | 0.17568 | 4958 ft | 210 kts | 133° |
| 2026-04-23 15:44 | 40.23245 | 0.18748 | 4963 ft | 212 kts | 144° |
| 2026-04-23 15:44 | 40.22001 | 0.19795 | 4957 ft | 215 kts | 150° |
| 2026-04-23 15:44 | 40.20547 | 0.20183 | 4948 ft | 217 kts | 189° |
| 2026-04-23 15:45 | 40.19225 | 0.19278 | 4948 ft | 219 kts | 229° |
| 2026-04-23 15:45 | 40.18378 | 0.17608 | 4961 ft | 221 kts | 241° |
| 2026-04-23 15:45 | 40.17636 | 0.15869 | 4935 ft | 216 kts | 242° |
| 2026-04-23 15:45 | 40.16909 | 0.14147 | 4558 ft | 220 kts | 242° |
| 2026-04-23 15:46 | 40.16172 | 0.12390 | 4166 ft | 223 kts | 242° |
| 2026-04-23 15:46 | 40.15420 | 0.10585 | 3820 ft | 225 kts | 242° |
| 2026-04-23 15:46 | 40.14676 | 0.08802 | 3489 ft | 226 kts | 242° |
| 2026-04-23 15:46 | 40.13925 | 0.07013 | 3184 ft | 226 kts | 242° |
| 2026-04-23 15:47 | 40.13172 | 0.05223 | 2899 ft | 225 kts | 242° |
| 2026-04-23 15:47 | 40.12425 | 0.03446 | 2775 ft | 220 kts | 242° |
| 2026-04-23 15:47 | 40.11676 | 0.01668 | 2760 ft | 222 kts | 241° |
| 2026-04-23 15:47 | 40.10932 | -0.00096 | 2759 ft | 223 kts | 242° |
| 2026-04-23 15:48 | 40.10178 | -0.01861 | 2757 ft | 223 kts | 244° |
| 2026-04-23 15:48 | 40.09755 | -0.03777 | 2905 ft | 219 kts | 270° |
| 2026-04-23 15:48 | 40.10073 | -0.05641 | 2812 ft | 218 kts | 304° |
| 2026-04-23 15:48 | 40.11126 | -0.06850 | 2756 ft | 192 kts | 341° |
| 2026-04-23 15:49 | 40.12379 | -0.07270 | 2777 ft | 183 kts | 355° |
| 2026-04-23 15:49 | 40.13627 | -0.07271 | 2760 ft | 179 kts | 17° |
| 2026-04-23 15:49 | 40.14642 | -0.06439 | 2752 ft | 173 kts | 50° |
| 2026-04-23 15:49 | 40.15304 | -0.05145 | 2756 ft | 168 kts | 63° |
| 2026-04-23 15:50 | 40.15868 | -0.03857 | 2762 ft | 162 kts | 62° |
| 2026-04-23 15:50 | 40.16413 | -0.02684 | 2612 ft | 135 kts | 57° |
| 2026-04-23 15:50 | 40.16902 | -0.01691 | 2439 ft | 126 kts | 54° |
| 2026-04-23 15:50 | 40.17368 | -0.00754 | 2260 ft | 121 kts | 56° |
| 2026-04-23 15:51 | 40.17819 | 0.00153 | 2105 ft | 119 kts | 54° |
| 2026-04-23 15:51 | 40.18271 | 0.01071 | 1952 ft | 120 kts | 62° |
| 2026-04-23 15:51 | 40.18715 | 0.01985 | 1801 ft | 119 kts | 57° |
| 2026-04-23 15:51 | 40.19178 | 0.02890 | 1661 ft | 119 kts | 55° |
| 2026-04-23 15:52 | 40.19637 | 0.03790 | 1513 ft | 120 kts | 61° |
| 2026-04-23 15:52 | 40.20085 | 0.04687 | 1335 ft | 119 kts | 60° |
| 2026-04-23 15:52 | 40.20544 | 0.05600 | 1199 ft | 118 kts | 56° |
| 2026-04-23 15:52 | 40.20982 | 0.06494 | 1100 ft | 110 kts | 59° |
| 2026-04-23 15:53 | 40.21331 | 0.07194 | 1129 ft | 72 kts | 54° |
| 2026-04-23 15:53 | 40.21508 | 0.07555 | 1147 ft | 22 kts | 57° |
| 2026-04-23 15:53 | 40.21580 | 0.07699 | 1155 ft | 16 kts | 58° |
| 2026-04-23 15:53 | 40.21604 | 0.07759 | 1158 ft | 5 kts | 299° |
| 2026-04-23 15:54 | 40.21559 | 0.07658 | 1152 ft | 21 kts | 238° |
| 2026-04-23 15:54 | 40.21443 | 0.07422 | 1140 ft | 37 kts | 236° |
| 2026-04-23 15:54 | 40.21323 | 0.07178 | 1128 ft | 22 kts | 236° |
| 2026-04-23 15:54 | 40.21249 | 0.07096 | 1124 ft | 12 kts | 150° |
| 2026-04-23 15:55 | 40.21174 | 0.07164 | 1125 ft | 12 kts | 147° |
| 2026-04-23 15:55 | 40.21098 | 0.07148 | 1122 ft | 15 kts | 239° |
| 2026-04-23 15:55 | 40.21025 | 0.06993 | 1116 ft | 23 kts | 237° |
| 2026-04-23 15:55 | 40.20945 | 0.06830 | 1108 ft | 19 kts | 237° |
| 2026-04-23 15:56 | 40.20875 | 0.06688 | 1102 ft | 17 kts | 237° |
| 2026-04-23 15:56 | 40.20811 | 0.06559 | 1095 ft | 16 kts | 238° |
| 2026-04-23 15:56 | 40.20754 | 0.06441 | 1088 ft | 15 kts | 236° |
| 2026-04-23 15:56 | 40.20706 | 0.06374 | 1084 ft | 9 kts | 152° |
| 2026-04-23 15:57 | 40.20657 | 0.06426 | 1086 ft | 9 kts | 146° |
| 2026-04-23 15:57 | 40.20638 | 0.06498 | 1088 ft | 8 kts | 65° |
| 2026-04-23 15:57 | 40.20666 | 0.06556 | 1091 ft | 6 kts | 57° |
| 2026-04-23 15:57 | 40.20693 | 0.06610 | 1095 ft | 8 kts | 58° |
| 2026-04-23 15:58 | 40.20723 | 0.06666 | 1098 ft | 6 kts | 54° |
| 2026-04-23 15:58 | 40.20746 | 0.06710 | 1100 ft | 5 kts | 57° |
| 2026-04-23 15:58 | 40.20756 | 0.06742 | 1102 ft | 2 kts | 101° |
| 2026-04-23 15:58 | 40.20735 | 0.06764 | 1102 ft | 4 kts | 147° |
| 2026-04-23 15:59 | 40.20721 | 0.06780 | 1103 ft | 1 kts | 105° |
| 2026-04-23 15:59 | 40.20725 | 0.06787 | 1103 ft | 1 kts | 18° |
| 2026-04-23 15:59 | 40.20731 | 0.06784 | 1103 ft | 2 kts | 334° |
| 2026-04-23 15:59 | 40.20735 | 0.06782 | 1103 ft | 1 kts | 328° |
| 2026-04-23 16:00 | 40.20735 | 0.06781 | 1103 ft | 0 kts | 327° |